createdAt,value
2019-04-29T00:11:34.832Z,18.1
2019-04-29T00:28:19.445Z,18.1
2019-04-29T00:45:03.939Z,18.1
2019-04-29T01:01:48.562Z,18.1
2019-04-29T01:18:32.845Z,18.1
2019-04-29T01:35:17.301Z,18.1
2019-04-29T01:52:01.685Z,18.1
2019-04-29T02:08:45.803Z,17.8
2019-04-29T02:25:30.140Z,17.8
2019-04-29T02:42:15.059Z,17.8
2019-04-29T02:58:58.595Z,17.8
2019-04-29T03:15:42.792Z,17.8
2019-04-29T03:32:26.770Z,17.8
2019-04-29T03:49:10.728Z,17.4
2019-04-29T04:05:54.648Z,17.4
2019-04-29T04:22:38.528Z,17.4
2019-04-29T04:39:22.389Z,17.4
2019-04-29T04:56:06.539Z,17.8
2019-04-29T05:12:50.360Z,17.8
2019-04-29T05:29:34.474Z,17.8
2019-04-29T05:46:21.480Z,17.8
2019-04-29T06:03:02.983Z,18.1
2019-04-29T06:19:47.992Z,18.4
2019-04-29T06:36:33.026Z,18.7
2019-04-29T06:53:21.211Z,18.7
2019-04-29T07:10:10.072Z,19.0
2019-04-29T07:26:49.765Z,19.0
2019-04-29T07:43:38.663Z,19.0
2019-04-29T08:00:21.025Z,19.4
2019-04-29T08:17:07.305Z,19.7
2019-04-29T08:33:53.882Z,20.0
2019-04-29T08:50:40.717Z,20.3
2019-04-29T09:07:27.923Z,20.3
2019-04-29T09:24:15.302Z,20.3
2019-04-29T09:41:02.591Z,20.6
2019-04-29T09:57:50.138Z,20.6
2019-04-29T10:14:37.826Z,20.6
2019-04-29T10:23:02.276Z,20.6
2019-04-29T10:33:05.977Z,20.3
2019-04-29T10:49:53.061Z,20.3
2019-04-29T11:06:43.904Z,20.3
2019-04-29T11:23:27.613Z,20.3
2019-04-29T11:40:14.955Z,20.3
2019-04-29T11:57:02.290Z,20.3
2019-04-29T12:13:49.652Z,20.6
2019-04-29T12:18:51.935Z,20.6
2019-04-29T12:35:51.020Z,20.6
2019-04-29T12:52:27.290Z,20.6
2019-04-29T13:09:17.845Z,20.3
2019-04-29T13:26:02.171Z,20.3
2019-04-29T13:42:51.039Z,20.3
2019-04-29T13:59:36.571Z,20.0
2019-04-29T14:16:23.686Z,20.0
2019-04-29T14:33:10.644Z,20.0
2019-04-29T14:49:57.756Z,20.0
2019-04-29T15:06:44.942Z,20.0
2019-04-29T15:23:32.994Z,20.0
2019-04-29T15:40:20.401Z,20.0
2019-04-29T15:57:09.278Z,19.7
2019-04-29T16:14:08.273Z,19.7
2019-04-29T16:30:40.069Z,19.7
2019-04-29T16:47:26.195Z,19.7
2019-04-29T17:04:13.207Z,19.7
2019-04-29T17:21:05.343Z,20.0
2019-04-29T17:37:46.995Z,20.0
2019-04-29T17:54:34.821Z,20.0
2019-04-29T18:11:22.045Z,19.7
2019-04-29T18:28:08.427Z,19.7
2019-04-29T18:45:00.163Z,19.7
2019-04-29T19:01:42.552Z,19.7
2019-04-29T19:18:28.709Z,19.7
2019-04-29T19:35:16.820Z,19.7
2019-04-29T19:52:01.573Z,19.7
2019-04-29T20:08:54.626Z,19.7
2019-04-29T20:25:38.118Z,19.7
2019-04-29T20:42:20.327Z,19.7
2019-04-29T20:59:12.528Z,19.7
2019-04-29T21:15:53.765Z,19.7
2019-04-29T21:32:39.020Z,19.7
2019-04-29T21:49:25.772Z,19.4
2019-04-29T22:06:10.952Z,19.7
2019-04-29T22:22:57.104Z,19.4
2019-04-29T22:39:43.130Z,19.4
2019-04-29T22:56:29.186Z,19.4
2019-04-29T23:13:15.112Z,19.4
2019-04-29T23:30:01.027Z,19.4
2019-04-29T23:46:47.487Z,19.0
